createdAt,value
2016-10-11T00:00:42.258Z,7.87
2016-10-11T00:01:42.249Z,7.87
2016-10-11T00:02:42.232Z,8.44
2016-10-11T00:03:42.228Z,8.72
2016-10-11T00:04:42.214Z,9.2
2016-10-11T00:05:42.193Z,9.58
2016-10-11T00:06:42.187Z,10.53
2016-10-11T00:07:42.168Z,11
2016-10-11T00:08:42.163Z,11.95
2016-10-11T00:09:42.149Z,12.99
2016-10-11T00:10:42.142Z,13.18
2016-10-11T00:11:42.122Z,13.46
2016-10-11T00:12:42.236Z,14.22
2016-10-11T00:13:42.108Z,14.61
2016-10-11T00:14:42.085Z,14.89
2016-10-11T00:15:42.081Z,14.7
2016-10-11T00:16:42.058Z,14.51
2016-10-11T00:17:42.056Z,14.51
2016-10-11T00:18:42.036Z,14.7
2016-10-11T00:19:42.024Z,14.61
2016-10-11T00:20:42.017Z,15.45
2016-10-11T00:21:42.000Z,15.17
2016-10-11T00:22:41.994Z,15.17
2016-10-11T00:23:41.974Z,15.26
2016-10-11T00:24:41.963Z,15.08
2016-10-11T00:25:41.952Z,14.89
2016-10-11T00:26:41.935Z,14.51
2016-10-11T00:27:41.932Z,14.51
2016-10-11T00:28:41.913Z,13.84
2016-10-11T00:29:41.899Z,13.94
2016-10-11T00:30:41.893Z,13.56
2016-10-11T00:31:41.876Z,13.46
2016-10-11T00:32:41.865Z,13.28
2016-10-11T00:33:41.857Z,13.28
2016-10-11T00:34:41.838Z,13.56
2016-10-11T00:35:41.834Z,13.75
2016-10-11T00:36:41.819Z,13.94
2016-10-11T00:37:41.803Z,13.56
2016-10-11T00:38:41.797Z,13.94
2016-10-11T00:39:41.777Z,13.84
2016-10-11T00:40:41.764Z,14.61
2016-10-11T00:41:41.754Z,14.41
2016-10-11T00:42:41.738Z,14.7
2016-10-11T00:43:41.733Z,14.98
2016-10-11T00:44:41.720Z,15.08
2016-10-11T00:45:41.707Z,14.7
2016-10-11T00:46:41.689Z,14.79
2016-10-11T00:47:41.681Z,15.26
2016-10-11T00:48:41.668Z,16.22
2016-10-11T00:49:41.662Z,16.6
2016-10-11T00:50:41.643Z,16.88
2016-10-11T00:51:41.629Z,16.88
2016-10-11T00:52:41.624Z,16.78
2016-10-11T00:53:41.607Z,16.5
2016-10-11T00:54:41.600Z,15.26
2016-10-11T00:55:41.584Z,14.13
2016-10-11T00:56:41.562Z,12.8
2016-10-11T00:57:41.557Z,12.14
2016-10-11T00:58:41.540Z,12.04
2016-10-11T00:59:41.536Z,12.42
2016-10-11T01:00:41.517Z,12.14
2016-10-11T01:01:41.554Z,12.61
2016-10-11T01:02:41.494Z,12.99
2016-10-11T01:03:41.480Z,12.8
2016-10-11T01:04:41.471Z,13.18
2016-10-11T01:05:41.457Z,13.18
2016-10-11T01:06:41.449Z,13.18
2016-10-11T01:07:41.430Z,12.99
2016-10-11T01:08:41.427Z,12.8
2016-10-11T01:09:41.411Z,12.14
2016-10-11T01:10:41.394Z,11.57
2016-10-11T01:11:41.378Z,11.66
2016-10-11T01:12:41.366Z,11.29
2016-10-11T01:13:41.361Z,10.52
2016-10-11T01:14:41.439Z,9.58
2016-10-11T01:15:41.338Z,8.53
2016-10-11T01:16:41.315Z,7.87
2016-10-11T01:17:41.315Z,7.3
2016-10-11T01:18:41.295Z,6.73
2016-10-11T01:19:41.291Z,6.26
2016-10-11T01:20:41.281Z,5.21
2016-10-11T01:21:41.316Z,5.02
2016-10-11T01:22:41.247Z,5.31
2016-10-11T01:23:41.234Z,5.59
2016-10-11T01:24:41.237Z,6.07
2016-10-11T01:25:41.212Z,6.35
2016-10-11T01:26:41.193Z,6.73
2016-10-11T01:27:41.187Z,7.3
2016-10-11T01:28:41.170Z,7.59
2016-10-11T01:29:41.161Z,8.06
2016-10-11T01:30:41.152Z,8.06
2016-10-11T01:31:41.128Z,7.87
2016-10-11T01:32:41.123Z,7.78
2016-10-11T01:33:41.108Z,7.78
2016-10-11T01:34:41.102Z,7.3
2016-10-11T01:35:41.086Z,7.01
2016-10-11T01:36:41.072Z,6.63
2016-10-11T01:37:41.062Z,6.82
2016-10-11T01:38:41.049Z,6.54
2016-10-11T01:39:41.052Z,6.16
2016-10-11T01:40:41.025Z,6.16
2016-10-11T01:41:41.007Z,6.16
2016-10-11T01:42:40.996Z,5.78
2016-10-11T01:43:40.987Z,5.59
2016-10-11T01:44:40.973Z,5.31
2016-10-11T01:45:40.965Z,5.88
2016-10-11T01:46:40.953Z,5.78
2016-10-11T01:47:40.935Z,6.16
2016-10-11T01:48:40.924Z,6.16
2016-10-11T01:49:40.912Z,6.16
2016-10-11T01:50:40.903Z,6.16
2016-10-11T01:51:40.889Z,5.69
2016-10-11T01:52:40.871Z,5.4
2016-10-11T01:53:40.862Z,5.69
2016-10-11T01:54:40.848Z,5.21
2016-10-11T01:55:40.833Z,5.12
2016-10-11T01:56:40.829Z,4.93
2016-10-11T01:57:40.812Z,4.83
2016-10-11T01:58:40.797Z,4.83
2016-10-11T01:59:40.783Z,4.74
2016-10-11T02:00:40.778Z,4.83
2016-10-11T02:01:40.767Z,5.12
2016-10-11T02:02:40.757Z,5.12
2016-10-11T02:03:40.733Z,5.31
2016-10-11T02:04:40.724Z,5.5
2016-10-11T02:05:40.708Z,5.97
2016-10-11T02:06:40.695Z,7.2
2016-10-11T02:07:40.696Z,7.3
2016-10-11T02:08:40.707Z,7.78
2016-10-11T02:09:40.713Z,7.78
2016-10-11T02:10:40.715Z,8.34
2016-10-11T02:11:40.662Z,8.91
2016-10-11T02:12:40.632Z,9.39
2016-10-11T02:13:40.640Z,9.95
2016-10-11T02:14:40.645Z,10.14
2016-10-11T02:15:40.654Z,10.62
2016-10-11T02:16:40.660Z,10.71
2016-10-11T02:17:40.667Z,11.19
2016-10-11T02:18:40.604Z,10.62
2016-10-11T02:19:40.615Z,10.52
2016-10-11T02:20:40.622Z,10.81
2016-10-11T02:21:40.636Z,11.29
2016-10-11T02:22:40.643Z,10.9
2016-10-11T02:23:40.660Z,10.71
2016-10-11T02:24:40.661Z,10.24
2016-10-11T02:25:40.561Z,10.24
2016-10-11T02:26:40.567Z,10.05
2016-10-11T02:27:40.578Z,9.95
2016-10-11T02:28:40.586Z,9.86
2016-10-11T02:29:40.588Z,9.58
2016-10-11T02:30:40.596Z,9.39
2016-10-11T02:31:40.465Z,9.77
2016-10-11T02:32:40.464Z,9.86
2016-10-11T02:33:40.465Z,9.29
2016-10-11T02:34:40.464Z,9.48
2016-10-11T02:35:40.491Z,9.77
2016-10-11T02:36:40.501Z,9.95
2016-10-11T02:37:40.408Z,8.82
2016-10-11T02:38:40.413Z,7.49
2016-10-11T02:39:40.423Z,6.92
2016-10-11T02:40:40.429Z,5.97
2016-10-11T02:41:40.439Z,6.26
2016-10-11T02:42:40.585Z,6.16
2016-10-11T02:43:40.443Z,5.69
2016-10-11T02:44:40.291Z,5.69
2016-10-11T02:45:40.280Z,6.35
2016-10-11T02:46:40.270Z,6.45
2016-10-11T02:47:40.381Z,6.92
2016-10-11T02:48:40.371Z,6.54
2016-10-11T02:49:40.256Z,6.63
2016-10-11T02:50:40.237Z,6.26
2016-10-11T02:51:40.248Z,5.69
2016-10-11T02:52:40.244Z,5.4
2016-10-11T02:53:40.213Z,5.31
2016-10-11T02:54:40.204Z,5.21
2016-10-11T02:55:40.093Z,5.31
2016-10-11T02:56:40.069Z,5.59
2016-10-11T02:57:40.056Z,5.78
2016-10-11T02:58:40.055Z,6.16
2016-10-11T02:59:40.037Z,6.54
2016-10-11T03:00:40.021Z,6.82
2016-10-11T03:01:40.013Z,6.82
2016-10-11T03:02:39.998Z,6.92
2016-10-11T03:03:39.991Z,6.82
2016-10-11T03:04:39.979Z,7.4
2016-10-11T03:05:39.963Z,7.68
2016-10-11T03:06:39.944Z,7.68
2016-10-11T03:07:39.934Z,8.15
2016-10-11T03:08:39.922Z,8.44
2016-10-11T03:09:39.918Z,8.06
2016-10-11T03:10:39.896Z,7.49
2016-10-11T03:11:39.883Z,6.26
2016-10-11T03:12:39.869Z,5.4
2016-10-11T03:13:39.856Z,4.74
2016-10-11T03:14:39.846Z,4.46
2016-10-11T03:15:39.835Z,4.17
2016-10-11T03:16:39.821Z,3.98
2016-10-11T03:17:39.807Z,4.17
2016-10-11T03:18:39.792Z,4.83
2016-10-11T03:19:39.780Z,5.21
2016-10-11T03:20:39.766Z,5.59
2016-10-11T03:21:39.755Z,5.69
2016-10-11T03:22:39.739Z,5.69
2016-10-11T03:23:39.732Z,6.16
2016-10-11T03:24:39.719Z,6.26
2016-10-11T03:25:39.710Z,5.78
2016-10-11T03:26:39.701Z,5.59
2016-10-11T03:27:39.689Z,5.31
2016-10-11T03:28:39.670Z,5.12
2016-10-11T03:29:39.656Z,5.02
2016-10-11T03:30:39.650Z,5.12
2016-10-11T03:31:39.631Z,5.69
2016-10-11T03:32:39.620Z,5.69
2016-10-11T03:33:39.610Z,6.16
2016-10-11T03:34:39.594Z,6.63
2016-10-11T03:35:39.585Z,6.63
2016-10-11T03:36:39.568Z,6.92
2016-10-11T03:37:39.870Z,7.11
2016-10-11T03:38:39.599Z,7.3
2016-10-11T03:39:39.524Z,7.3
2016-10-11T03:40:39.519Z,6.92
2016-10-11T03:41:39.506Z,6.45
2016-10-11T03:42:39.497Z,5.97
2016-10-11T03:43:39.487Z,5.4
2016-10-11T03:44:39.465Z,5.5
2016-10-11T03:45:39.770Z,5.5
2016-10-11T03:46:39.444Z,5.78
2016-10-11T03:47:39.426Z,6.16
2016-10-11T03:48:39.425Z,6.26
2016-10-11T03:49:39.407Z,6.54
2016-10-11T03:50:39.385Z,6.92
2016-10-11T03:51:39.392Z,7.4
2016-10-11T03:52:39.365Z,7.78
2016-10-11T03:53:39.355Z,8.53
2016-10-11T03:54:39.344Z,9.39
2016-10-11T03:55:39.326Z,9.29
2016-10-11T03:56:39.639Z,10.52
2016-10-11T03:57:39.300Z,11.1
2016-10-11T03:58:39.289Z,11.29
2016-10-11T03:59:39.273Z,11.66
2016-10-11T04:00:39.264Z,12.23
2016-10-11T04:01:39.259Z,12.71
2016-10-11T04:02:39.279Z,13.46
2016-10-11T04:03:39.226Z,13.84
2016-10-11T04:04:39.215Z,13.28
2016-10-11T04:05:39.210Z,13.18
2016-10-11T04:06:39.190Z,12.71
2016-10-11T04:07:39.186Z,11.66
2016-10-11T04:08:39.212Z,11.19
2016-10-11T04:09:39.153Z,11.29
2016-10-11T04:10:39.457Z,11.19
2016-10-11T04:11:39.126Z,10.33
2016-10-11T04:12:39.123Z,10.05
2016-10-11T04:13:39.105Z,9.67
2016-10-11T04:14:39.090Z,9.29
2016-10-11T04:15:39.079Z,8.72
2016-10-11T04:16:39.062Z,8.44
2016-10-11T04:17:39.061Z,7.97
2016-10-11T04:18:39.042Z,7.68
2016-10-11T04:19:39.025Z,7.4
2016-10-11T04:20:39.008Z,6.73
2016-10-11T04:21:39.001Z,5.97
2016-10-11T04:22:38.993Z,5.88
2016-10-11T04:23:38.974Z,5.88
2016-10-11T04:24:38.969Z,6.26
2016-10-11T04:25:38.944Z,6.54
2016-10-11T04:26:38.938Z,6.26
2016-10-11T04:27:38.930Z,6.26
2016-10-11T04:28:38.911Z,6.26
2016-10-11T04:29:38.897Z,6.16
2016-10-11T04:30:38.883Z,6.07
2016-10-11T04:31:38.872Z,6.54
2016-10-11T04:32:38.861Z,6.26
2016-10-11T04:33:38.854Z,6.07
2016-10-11T04:34:38.836Z,6.26
2016-10-11T04:35:38.824Z,6.35
2016-10-11T04:36:38.805Z,6.26
2016-10-11T04:37:38.799Z,5.88
2016-10-11T04:38:38.785Z,5.21
2016-10-11T04:39:38.771Z,5.02
2016-10-11T04:40:38.754Z,4.74
2016-10-11T04:41:38.751Z,4.64
2016-10-11T04:42:38.733Z,4.46
2016-10-11T04:43:38.732Z,4.17
2016-10-11T04:44:39.025Z,4.27
2016-10-11T04:45:38.692Z,4.55
2016-10-11T04:46:38.689Z,5.31
2016-10-11T04:47:38.666Z,5.31
2016-10-11T04:48:38.975Z,5.69
2016-10-11T04:49:38.646Z,5.12
2016-10-11T04:50:38.636Z,4.55
2016-10-11T04:51:38.623Z,3.98
2016-10-11T04:52:38.605Z,3.6
2016-10-11T04:53:38.599Z,3.31
2016-10-11T04:54:38.585Z,3.22
2016-10-11T04:55:38.569Z,3.31
2016-10-11T04:56:38.558Z,2.94
2016-10-11T04:57:38.547Z,2.75
2016-10-11T04:58:38.537Z,2.75
2016-10-11T04:59:38.522Z,2.56
2016-10-11T05:00:38.510Z,2.94
2016-10-11T05:01:38.491Z,3.03
2016-10-11T05:02:38.481Z,2.66
2016-10-11T05:03:38.471Z,2.66
2016-10-11T05:04:38.455Z,2.27
2016-10-11T05:05:38.454Z,1.99
2016-10-11T05:06:38.427Z,1.42
2016-10-11T05:07:38.414Z,1.51
2016-10-11T05:08:38.407Z,1.8
2016-10-11T05:09:38.392Z,1.8
2016-10-11T05:10:38.390Z,1.8
2016-10-11T05:11:38.369Z,1.61
2016-10-11T05:12:38.675Z,1.8
2016-10-11T05:13:38.344Z,2.37
2016-10-11T05:14:38.335Z,2.84
2016-10-11T05:15:38.320Z,3.13
2016-10-11T05:16:38.310Z,3.5
2016-10-11T05:17:38.305Z,3.89
2016-10-11T05:18:38.283Z,4.83
2016-10-11T05:19:38.273Z,5.78
2016-10-11T05:20:38.256Z,5.78
2016-10-11T05:21:38.242Z,6.26
2016-10-11T05:22:38.226Z,6.26
2016-10-11T05:23:38.217Z,6.92
2016-10-11T05:24:38.210Z,7.01
2016-10-11T05:25:38.192Z,7.01
2016-10-11T05:26:38.191Z,7.49
2016-10-11T05:27:38.165Z,7.49
2016-10-11T05:28:38.155Z,7.59
2016-10-11T05:29:38.149Z,7.3
2016-10-11T05:30:38.130Z,6.82
2016-10-11T05:31:38.125Z,7.3
2016-10-11T05:32:38.106Z,7.97
2016-10-11T05:33:38.091Z,8.34
2016-10-11T05:34:38.082Z,9.01
2016-10-11T05:35:38.067Z,9.67
2016-10-11T05:36:38.059Z,9.86
2016-10-11T05:37:38.037Z,9.95
2016-10-11T05:38:38.031Z,9.95
2016-10-11T05:39:38.015Z,9.58
2016-10-11T05:40:38.002Z,9.2
2016-10-11T05:41:37.995Z,9.1
2016-10-11T05:42:37.977Z,9.48
2016-10-11T05:43:37.968Z,8.91
2016-10-11T05:44:37.953Z,8.72
2016-10-11T05:45:37.949Z,8.06
2016-10-11T05:46:37.943Z,7.59
2016-10-11T05:47:37.923Z,7.2
2016-10-11T05:48:37.902Z,7.4
2016-10-11T05:49:37.904Z,7.59
2016-10-11T05:50:37.881Z,7.68
2016-10-11T05:51:37.863Z,7.87
2016-10-11T05:52:37.852Z,7.87
2016-10-11T05:53:37.848Z,8.25
2016-10-11T05:54:37.830Z,8.72
2016-10-11T05:55:37.835Z,8.72
2016-10-11T05:56:37.797Z,8.72
2016-10-11T05:57:37.791Z,9.29
2016-10-11T05:58:37.778Z,9.67
2016-10-11T05:59:37.771Z,10.62
2016-10-11T06:00:37.750Z,11.29
2016-10-11T06:01:37.741Z,12.04
2016-10-11T06:02:37.728Z,12.71
2016-10-11T06:03:37.737Z,13.28
2016-10-11T06:04:37.704Z,13.84
2016-10-11T06:05:37.693Z,14.51
2016-10-11T06:06:37.681Z,15.08
2016-10-11T06:07:37.683Z,15.74
2016-10-11T06:08:37.651Z,16.22
2016-10-11T06:09:37.646Z,16.6
2016-10-11T06:10:37.630Z,16.41
2016-10-11T06:11:37.629Z,16.22
2016-10-11T06:12:37.598Z,15.74
2016-10-11T06:13:37.613Z,15.74
2016-10-11T06:14:37.573Z,16.12
2016-10-11T06:15:37.615Z,16.69
2016-10-11T06:16:37.555Z,16.31
2016-10-11T06:17:37.548Z,16.12
2016-10-11T06:18:37.527Z,16.41
2016-10-11T06:19:37.531Z,17.45
2016-10-11T06:20:37.504Z,17.64
2016-10-11T06:21:37.493Z,18.3
2016-10-11T06:22:37.475Z,18.96
2016-10-11T06:23:37.494Z,19.15
2016-10-11T06:24:37.453Z,19.25
2016-10-11T06:25:37.440Z,19.25
2016-10-11T06:26:37.426Z,19.06
2016-10-11T06:27:37.427Z,19.15
2016-10-11T06:28:37.408Z,19.34
2016-10-11T06:29:37.388Z,18.87
2016-10-11T06:30:37.701Z,19.25
2016-10-11T06:31:37.375Z,19.54
2016-10-11T06:32:37.355Z,19.54
2016-10-11T06:33:37.367Z,20.78
2016-10-11T06:34:37.333Z,21.44
2016-10-11T06:35:37.317Z,21.73
2016-10-11T06:36:37.301Z,21.15
2016-10-11T06:37:37.303Z,21.15
2016-10-11T06:38:37.284Z,21.72
2016-10-11T06:39:37.269Z,22.76
2016-10-11T06:40:37.258Z,23.24
2016-10-11T06:41:37.267Z,23.99
2016-10-11T06:42:37.234Z,24.08
2016-10-11T06:43:37.217Z,25.04
2016-10-11T06:44:37.206Z,25.13
2016-10-11T06:45:37.207Z,24.94
2016-10-11T06:46:37.185Z,25.04
2016-10-11T06:47:37.168Z,24.18
2016-10-11T06:48:37.171Z,23.14
2016-10-11T06:49:37.174Z,21.81
2016-10-11T06:50:37.128Z,20.01
2016-10-11T06:51:37.170Z,19.82
2016-10-11T06:52:37.113Z,18.59
2016-10-11T06:53:37.102Z,18.4
2016-10-11T06:54:37.084Z,18.11
2016-10-11T06:55:37.078Z,18.02
2016-10-11T06:56:37.067Z,18.21
2016-10-11T06:57:37.046Z,17.46
2016-10-11T06:58:37.043Z,17.65
2016-10-11T06:59:37.027Z,19.07
2016-10-11T07:00:37.011Z,20.31
2016-10-11T07:01:37.003Z,21.44
2016-10-11T07:02:36.985Z,23.34
2016-10-11T07:03:36.974Z,24.19
2016-10-11T07:04:36.968Z,25.14
2016-10-11T07:05:36.963Z,26.18
2016-10-11T07:06:36.941Z,27.7
2016-10-11T07:07:36.927Z,30.28
2016-10-11T07:08:36.916Z,31.42
2016-10-11T07:09:36.916Z,34.08
2016-10-11T07:10:36.887Z,37.02
2016-10-11T07:11:36.883Z,42.63
2016-10-11T07:12:36.871Z,48.32
2016-10-11T07:13:36.855Z,52.69
2016-10-11T07:14:36.850Z,53.07
2016-10-11T07:15:36.828Z,50.79
2016-10-11T07:16:36.822Z,48.99
2016-10-11T07:17:36.815Z,48.39
2016-10-11T07:18:36.796Z,47.09
2016-10-11T07:19:36.781Z,47.18
2016-10-11T07:20:36.777Z,49.18
2016-10-11T07:21:36.755Z,49.24
2016-10-11T07:22:36.752Z,47.66
2016-10-11T07:23:36.739Z,46.51
2016-10-11T07:24:36.792Z,47.37
2016-10-11T07:25:36.718Z,48.32
2016-10-11T07:26:36.723Z,48.89
2016-10-11T07:27:36.687Z,49.18
2016-10-11T07:28:36.677Z,48.61
2016-10-11T07:29:36.676Z,48.32
2016-10-11T07:30:36.650Z,49.08
2016-10-11T07:31:36.641Z,51.26
2016-10-11T07:32:36.629Z,52.12
2016-10-11T07:33:36.775Z,51.55
2016-10-11T07:34:36.613Z,50.89
2016-10-11T07:35:36.592Z,50.03
2016-10-11T07:36:36.590Z,51.17
2016-10-11T07:37:36.642Z,52.02
2016-10-11T07:38:36.865Z,52.5
2016-10-11T07:39:36.547Z,53.26
2016-10-11T07:40:36.537Z,52.4
2016-10-11T07:41:36.530Z,52.12
2016-10-11T07:42:36.520Z,51.45
2016-10-11T07:43:36.501Z,51.26
2016-10-11T07:44:36.492Z,52.31
2016-10-11T07:45:36.488Z,53.07
2016-10-11T07:46:36.466Z,55.91
2016-10-11T07:47:36.463Z,55.73
2016-10-11T07:48:36.445Z,54.87
2016-10-11T07:49:36.436Z,55.73
2016-10-11T07:50:36.419Z,57.24
2016-10-11T07:51:36.421Z,57.06
2016-10-11T07:52:36.401Z,59.81
2016-10-11T07:53:36.389Z,61.61
2016-10-11T07:54:36.389Z,62.46
2016-10-11T07:55:36.367Z,62.56
2016-10-11T07:56:36.356Z,66.17
2016-10-11T07:57:36.339Z,67.5
2016-10-11T07:58:36.745Z,64.84
2016-10-11T07:59:36.316Z,63.45
2016-10-11T08:00:36.323Z,65.63
2016-10-11T08:01:36.292Z,66.01
2016-10-11T08:02:36.292Z,64.78
2016-10-11T08:03:36.275Z,64.97
2016-10-11T08:04:36.259Z,68.48
2016-10-11T08:05:36.246Z,68.67
2016-10-11T08:06:36.237Z,67.63
2016-10-11T08:07:36.230Z,67.91
2016-10-11T08:08:36.220Z,67.63
2016-10-11T08:09:36.209Z,70.57
2016-10-11T08:10:36.195Z,70.48
2016-10-11T08:11:36.179Z,70.1
2016-10-11T08:12:36.169Z,71.9
2016-10-11T08:13:36.197Z,72.56
2016-10-11T08:14:36.150Z,75.51
2016-10-11T08:15:36.150Z,76.65
2016-10-11T08:16:36.182Z,76.65
2016-10-11T08:17:36.118Z,76.75
2016-10-11T08:18:36.107Z,76.08
2016-10-11T08:19:36.093Z,75.04
2016-10-11T08:20:36.116Z,73.42
2016-10-11T08:21:36.079Z,80.74
2016-10-11T08:22:36.060Z,90.23
2016-10-11T08:23:36.046Z,86.05
2016-10-11T08:24:36.040Z,85.05
2016-10-11T08:25:36.034Z,84.2
2016-10-11T08:26:36.026Z,82.01
2016-10-11T08:27:36.004Z,82.2
2016-10-11T08:28:35.996Z,90.56
2016-10-11T08:29:35.982Z,95.75
2016-10-11T08:30:35.972Z,92.7
2016-10-11T08:31:35.960Z,92.99
2016-10-11T08:32:35.952Z,96.22
2016-10-11T08:33:35.940Z,96.17
2016-10-11T08:34:35.934Z,93.6
2016-10-11T08:35:35.919Z,98.07
2016-10-11T08:36:35.909Z,97.03
2016-10-11T08:37:35.906Z,95.32
2016-10-11T08:38:35.905Z,94.42
2016-10-11T08:39:35.889Z,93.94
2016-10-11T08:40:35.870Z,89.86
2016-10-11T08:41:35.877Z,89.38
2016-10-11T08:42:35.857Z,90.8
2016-10-11T08:43:35.865Z,90.52
2016-10-11T08:44:35.826Z,88.62
2016-10-11T08:45:35.816Z,86.24
2016-10-11T08:46:35.812Z,83.49
2016-10-11T08:47:35.795Z,81.3
2016-10-11T08:48:35.787Z,79.6
2016-10-11T08:49:35.780Z,82.16
2016-10-11T08:50:35.764Z,85.01
2016-10-11T08:51:35.754Z,83.39
2016-10-11T08:52:36.058Z,81.3
2016-10-11T08:53:35.739Z,81.87
2016-10-11T08:54:35.717Z,80.83
2016-10-11T08:55:35.720Z,78.64
2016-10-11T08:56:35.700Z,78.17
2016-10-11T08:57:35.692Z,80.16
2016-10-11T08:58:35.699Z,80.55
2016-10-11T08:59:35.663Z,80.07
2016-10-11T09:00:35.658Z,81.59
2016-10-11T09:01:35.849Z,85.96
2016-10-11T09:02:35.627Z,89.38
2016-10-11T09:03:35.621Z,91.85
2016-10-11T09:04:35.625Z,92.71
2016-10-11T09:05:35.600Z,92.71
2016-10-11T09:06:35.598Z,92.42
2016-10-11T09:07:35.595Z,93.27
2016-10-11T09:08:35.566Z,92.51
2016-10-11T09:09:35.569Z,95.27
2016-10-11T09:10:35.549Z,95.27
2016-10-11T09:11:35.550Z,93.37
2016-10-11T09:12:35.567Z,92.42
2016-10-11T09:13:35.510Z,95.17
2016-10-11T09:14:35.504Z,99.97
2016-10-11T09:15:35.505Z,99.99
2016-10-11T09:16:35.475Z,99.99
2016-10-11T09:17:35.472Z,99.99
2016-10-11T09:18:35.456Z,99.99
2016-10-11T09:19:35.462Z,99.99
2016-10-11T09:20:35.440Z,99.99
2016-10-11T09:21:35.442Z,99.99
2016-10-11T09:22:35.421Z,99.99
2016-10-11T09:23:35.414Z,99.99
2016-10-11T09:24:35.391Z,99.99
2016-10-11T09:25:35.396Z,99.99
2016-10-11T09:26:35.377Z,99.99
2016-10-11T09:27:35.356Z,99.99
2016-10-11T09:28:35.351Z,99.99
2016-10-11T09:29:35.352Z,99.99
2016-10-11T09:30:35.328Z,99.99
2016-10-11T09:31:35.327Z,99.99
2016-10-11T09:32:35.316Z,99.99
2016-10-11T09:33:35.300Z,99.99
2016-10-11T09:34:35.289Z,99.99
2016-10-11T09:35:35.290Z,99.99
2016-10-11T09:36:35.376Z,99.99
2016-10-11T09:37:35.257Z,99.99
2016-10-11T09:38:35.251Z,99.99
2016-10-11T09:39:35.263Z,99.99
2016-10-11T09:40:35.231Z,99.99
2016-10-11T09:41:35.232Z,99.99
2016-10-11T09:42:35.202Z,99.99
2016-10-11T09:43:35.198Z,99.99
2016-10-11T09:44:35.194Z,99.99
2016-10-11T09:45:35.197Z,99.99
2016-10-11T09:46:35.170Z,99.99
2016-10-11T09:47:35.163Z,99.99
2016-10-11T09:48:35.146Z,99.99
2016-10-11T09:49:35.144Z,99.99
2016-10-11T09:50:35.122Z,99.99
2016-10-11T09:51:35.112Z,99.99
2016-10-11T09:52:35.108Z,99.99
2016-10-11T09:53:35.112Z,99.99
2016-10-11T09:54:35.088Z,99.99
2016-10-11T09:55:35.075Z,99.99
2016-10-11T09:56:35.065Z,99.99
2016-10-11T09:57:35.066Z,99.99
2016-10-11T09:58:35.047Z,99.99
2016-10-11T09:59:35.043Z,99.99
2016-10-11T10:00:35.024Z,99.99
2016-10-11T10:01:35.014Z,99.99
2016-10-11T10:02:35.005Z,99.99
2016-10-11T10:03:35.003Z,99.99
2016-10-11T10:04:34.985Z,99.99
2016-10-11T10:05:34.990Z,99.99
2016-10-11T10:06:34.962Z,99.99
2016-10-11T10:07:34.966Z,99.99
2016-10-11T10:08:34.945Z,99.99
2016-10-11T10:09:34.944Z,99.99
2016-10-11T10:10:34.928Z,99.99
2016-10-11T10:11:34.932Z,99.99
2016-10-11T10:12:34.905Z,99.99
2016-10-11T10:13:34.896Z,99.99
2016-10-11T10:14:34.887Z,99.99
2016-10-11T10:15:34.880Z,99.99
2016-10-11T10:16:34.883Z,99.99
2016-10-11T10:17:34.867Z,99.99
2016-10-11T10:18:34.848Z,99.99
2016-10-11T10:19:34.838Z,99.99
2016-10-11T10:20:34.836Z,99.99
2016-10-11T10:21:34.845Z,99.99
2016-10-11T10:22:34.808Z,99.99
2016-10-11T10:23:34.803Z,99.99
2016-10-11T10:24:34.791Z,99.99
2016-10-11T10:25:34.787Z,99.99
2016-10-11T10:26:34.770Z,99.99
2016-10-11T10:27:34.763Z,99.99
2016-10-11T10:28:34.747Z,99.99
2016-10-11T10:29:34.747Z,99.99
2016-10-11T10:30:34.741Z,99.99
2016-10-11T10:31:34.740Z,99.99
2016-10-11T10:32:34.718Z,99.99
2016-10-11T10:33:34.702Z,99.99
2016-10-11T10:34:34.690Z,99.99
2016-10-11T10:35:34.689Z,99.99
2016-10-11T10:36:34.674Z,99.99
2016-10-11T10:37:34.663Z,99.99
2016-10-11T10:38:34.649Z,99.99
2016-10-11T10:39:34.656Z,99.99
2016-10-11T10:40:34.645Z,99.99
2016-10-11T10:41:34.630Z,99.99
2016-10-11T10:42:34.622Z,99.99
2016-10-11T10:43:34.604Z,99.99
2016-10-11T10:44:34.593Z,99.99
2016-10-11T10:45:34.590Z,99.99
2016-10-11T10:46:34.589Z,99.99
2016-10-11T10:47:34.574Z,99.99
2016-10-11T10:48:35.237Z,99.99
2016-10-11T10:49:34.547Z,99.99
2016-10-11T10:50:34.537Z,99.99
2016-10-11T10:51:34.523Z,99.99
2016-10-11T10:52:34.519Z,99.99
2016-10-11T10:53:34.510Z,99.99
2016-10-11T10:54:34.503Z,99.99
2016-10-11T10:55:34.487Z,99.99
2016-10-11T10:56:34.475Z,99.99
2016-10-11T10:57:34.470Z,99.99
2016-10-11T10:58:34.450Z,99.99
2016-10-11T10:59:34.447Z,99.99
2016-10-11T11:00:34.459Z,99.99
2016-10-11T11:01:34.421Z,99.99
2016-10-11T11:02:34.408Z,99.99
2016-10-11T11:03:34.411Z,99.99
2016-10-11T11:04:34.396Z,99.99
2016-10-11T11:05:34.383Z,99.99
2016-10-11T11:06:34.383Z,99.99
2016-10-11T11:07:34.357Z,99.99
2016-10-11T11:08:34.396Z,99.99
2016-10-11T11:09:34.341Z,99.99
2016-10-11T11:10:34.333Z,99.99
2016-10-11T11:11:34.329Z,99.99
2016-10-11T11:12:34.323Z,99.99
2016-10-11T11:13:34.309Z,99.99
2016-10-11T11:14:34.293Z,99.99
2016-10-11T11:15:34.282Z,99.99
2016-10-11T11:16:34.271Z,99.99
2016-10-11T11:17:34.261Z,99.99
2016-10-11T11:18:34.253Z,99.99
2016-10-11T11:19:34.237Z,99.99
2016-10-11T11:20:34.244Z,99.99
2016-10-11T11:21:34.219Z,99.99
2016-10-11T11:22:34.212Z,99.99
2016-10-11T11:23:34.196Z,99.99
2016-10-11T11:24:34.195Z,99.99
2016-10-11T11:25:34.181Z,99.99
2016-10-11T11:26:34.173Z,99.99
2016-10-11T11:27:34.160Z,99.99
2016-10-11T11:28:34.152Z,99.99
2016-10-11T11:29:34.156Z,99.99
2016-10-11T11:30:34.130Z,99.99
2016-10-11T11:31:34.127Z,99.99
2016-10-11T11:32:34.111Z,99.99
2016-10-11T11:33:34.106Z,99.99
2016-10-11T11:34:34.094Z,99.99
2016-10-11T11:35:34.400Z,99.99
2016-10-11T11:36:34.079Z,99.99
2016-10-11T11:37:34.059Z,99.99
2016-10-11T11:38:34.050Z,99.99
2016-10-11T11:39:34.041Z,99.99
2016-10-11T11:40:34.037Z,99.99
2016-10-11T11:41:34.036Z,99.99
2016-10-11T11:42:34.018Z,99.99
2016-10-11T11:43:34.021Z,99.99
2016-10-11T11:44:34.003Z,99.99
2016-10-11T11:45:33.988Z,99.99
2016-10-11T11:46:33.981Z,99.99
2016-10-11T11:47:33.976Z,99.99
2016-10-11T11:48:33.962Z,99.99
2016-10-11T11:49:33.961Z,99.99
2016-10-11T11:50:33.938Z,99.99
2016-10-11T11:51:33.932Z,99.99
2016-10-11T11:52:33.916Z,99.99
2016-10-11T11:53:33.913Z,99.99
2016-10-11T11:54:33.899Z,99.99
2016-10-11T11:55:33.893Z,99.99
2016-10-11T11:56:33.877Z,99.99
2016-10-11T11:57:33.866Z,99.99
2016-10-11T11:58:33.860Z,99.99
2016-10-11T11:59:33.851Z,99.99
2016-10-11T12:00:33.839Z,99.99
2016-10-11T12:01:33.831Z,99.99
2016-10-11T12:02:33.819Z,99.99
2016-10-11T12:03:33.801Z,99.99
2016-10-11T12:04:33.798Z,99.99
2016-10-11T12:05:33.787Z,99.99
2016-10-11T12:06:33.771Z,99.99
2016-10-11T12:07:33.766Z,93.32
2016-10-11T12:08:33.752Z,94.03
2016-10-11T12:09:33.742Z,89
2016-10-11T12:10:33.727Z,87.77
2016-10-11T12:11:33.736Z,85.21
2016-10-11T12:12:33.707Z,81.7
2016-10-11T12:13:33.693Z,77.33
2016-10-11T12:14:33.687Z,71.8
2016-10-11T12:15:33.667Z,70.84
2016-10-11T12:16:33.661Z,71.03
2016-10-11T12:17:33.650Z,71.32
2016-10-11T12:18:33.639Z,65.91
2016-10-11T12:19:33.625Z,66.1
2016-10-11T12:20:33.609Z,61.83
2016-10-11T12:21:33.606Z,57.28
2016-10-11T12:22:33.592Z,53.87
2016-10-11T12:23:33.578Z,52.06
2016-10-11T12:24:33.564Z,50.55
2016-10-11T12:25:33.554Z,52.73
2016-10-11T12:26:33.541Z,53.96
2016-10-11T12:27:33.524Z,52.26
2016-10-11T12:28:33.514Z,52.64
2016-10-11T12:29:33.507Z,53.02
2016-10-11T12:30:33.488Z,54.56
2016-10-11T12:31:33.480Z,52.73
2016-10-11T12:32:33.474Z,53.39
2016-10-11T12:33:33.453Z,53.02
2016-10-11T12:34:33.442Z,50.64
2016-10-11T12:35:33.429Z,50.07
2016-10-11T12:36:33.423Z,47.8
2016-10-11T12:37:33.409Z,47.71
2016-10-11T12:38:33.391Z,47.42
2016-10-11T12:39:33.378Z,46.78
2016-10-11T12:40:33.368Z,46.47
2016-10-11T12:41:33.356Z,44.4
2016-10-11T12:42:33.346Z,41.94
2016-10-11T12:43:33.333Z,39.18
2016-10-11T12:44:33.321Z,37.67
2016-10-11T12:45:33.306Z,37.1
2016-10-11T12:46:33.303Z,38.62
2016-10-11T12:47:33.285Z,39
2016-10-11T12:48:33.268Z,37.86
2016-10-11T12:49:33.262Z,39.47
2016-10-11T12:50:33.244Z,39.95
2016-10-11T12:51:33.234Z,39.18
2016-10-11T12:52:33.224Z,38.33
2016-10-11T12:53:33.209Z,36.24
2016-10-11T12:54:33.204Z,36.65
2016-10-11T12:55:33.185Z,37.78
2016-10-11T12:56:33.180Z,38.16
2016-10-11T12:57:33.161Z,37.21
2016-10-11T12:58:33.154Z,36.07
2016-10-11T12:59:33.135Z,36.36
2016-10-11T13:00:33.128Z,37.21
2016-10-11T13:01:33.115Z,38.54
2016-10-11T13:02:33.097Z,43.95
2016-10-11T13:03:33.089Z,43.95